Pagina principale
METAR-TAF:

METAR-TAF

Aeroporti :

Grazzanise, Italia

latitudine: 41-03N, longitudine: 014-04E, altezza: 9 m

Osservazione

Il bollettino è stato emesso 46 minuti fa, alle 08:55 UTC
Vento 3 kt da sud/sud-ovest
Temperature 26°C
Umidità 37%
Pressione 1018 hPa
Visibilità 10 km o più
nessuna nube inferiore a 1500 m e nessun cumulonembo

METAR: LIRM 290855Z 20003KT CAVOK 26/10 Q1018 RMK SKC VIS MIN 9999 WIND THR06 05003KT BLU

Ora: 11:41 (09:41 UTC)

Previsione

Il bollettino è stato emesso 1 ora e 41 minuti fa, alle 08:00 UTC
Previsione valida dal 29 alle 09 UTC al 29 alle 18 UTC
Vento 3 kt da direzioni variabili
Visibilità 10 km o più
nessuna nube inferiore a 1500 m e nessun cumulonembo
Evoluzione graduale
dal 29 alle 12 UTC al 29 alle 13 UTC
Vento 13 kt da ovest

TAF: LIRM 290800Z 2909/2918 VRB03KT CAVOK BECMG 2912/2913 26013KT

Osservazioni e previsioni meteorologiche di più di 4000 aeroporti (messaggi METAR e TAF).

Le stazioni disponibili sono rappresentate dai dischi gialli e rossi sulla carta.

Puntare il mouse per vedere il nome della stazione.

Clicca sopra per visualizzare le osservazioni e previsioni meteorologiche.

Per cambiare la mappa : fare clic sui pulsanti verdi con una croce nera per ingrandire, il pulsante verde con un trattino per diminuire, o sulla freccia verde per le mappe adiacenti.


METAR-TAF: